Time;durP1;ratioP1;P1;durP2;ratioP2;P2;SDS_P1;SDS_P2;PMS_P1;PMS_P2;Temp;Humidity;BMP_temperature;BMP_pressure;BME280_temperature;BME280_humidity;BME280_pressure;Samples;Min_cycle;Max_cycle;Signal;HPM_P1;HPM_P2
2022/09/13 00:02:15;;;;;;;2.33;2.15;;;;;;;11.10;90.97;94154.98;1679645;83;21458;-58
2022/09/13 00:04:41;;;;;;;2.17;2.00;;;;;;;11.11;91.02;94157.11;1685188;83;21035;-56
2022/09/13 00:07:08;;;;;;;2.50;2.30;;;;;;;11.12;91.29;94155.28;1687198;83;22348;-57
2022/09/13 00:09:36;;;;;;;3.62;2.62;;;;;;;11.14;91.41;94158.33;1687536;83;21033;-57
2022/09/13 00:12:03;;;;;;;4.53;2.02;;;;;;;11.12;91.38;94155.28;1688967;83;21244;-56
2022/09/13 00:14:30;;;;;;;6.42;3.70;;;;;;;11.14;91.59;94158.95;1686291;83;21234;-57
2022/09/13 00:16:57;;;;;;;9.68;3.70;;;;;;;11.16;91.79;94162.76;1662844;83;21073;-59
2022/09/13 00:19:24;;;;;;;5.03;3.50;;;;;;;11.25;91.60;94156.45;1686844;83;21067;-57
2022/09/13 00:21:50;;;;;;;9.60;4.10;;;;;;;11.33;91.51;94155.66;1666818;84;21483;-58
2022/09/13 00:24:17;;;;;;;3.55;2.80;;;;;;;11.40;91.26;94155.33;1681618;83;20968;-58
2022/09/13 00:26:44;;;;;;;3.62;2.25;;;;;;;11.43;90.85;94153.02;1687525;84;21134;-58
2022/09/13 00:29:12;;;;;;;2.08;1.98;;;;;;;11.49;90.46;94151.14;1678470;83;21202;-57
2022/09/13 00:31:40;;;;;;;6.65;2.58;;;;;;;11.52;89.87;94153.59;1679156;84;21059;-56
2022/09/13 00:34:06;;;;;;;2.33;2.22;;;;;;;11.52;89.63;94159.09;1681976;84;21020;-57
2022/09/13 00:36:34;;;;;;;2.30;2.10;;;;;;;11.53;89.69;94157.87;1687120;83;21419;-57
2022/09/13 00:39:00;;;;;;;2.12;1.92;;;;;;;11.55;90.00;94153.39;1683578;83;21185;-58
2022/09/13 00:41:27;;;;;;;3.70;2.17;;;;;;;11.57;90.13;94157.85;1685223;83;20988;-58
2022/09/13 00:43:57;;;;;;;2.00;1.90;;;;;;;11.55;90.50;94150.64;1680099;84;21550;-56
2022/09/13 00:46:38;;;;;;;2.37;2.00;;;;;;;11.58;90.71;94156.65;1675372;84;21143;-56
2022/09/13 00:49:35;;;;;;;2.10;2.00;;;;;;;11.58;90.54;94155.87;1684290;84;21042;-56
2022/09/13 00:52:06;;;;;;;2.00;1.90;;;;;;;11.58;90.70;94150.36;1685100;83;21164;-57
2022/09/13 00:54:44;;;;;;;2.17;2.08;;;;;;;11.60;90.54;94146.52;1677665;83;21068;-57
2022/09/13 00:57:11;;;;;;;2.15;2.05;;;;;;;11.56;89.87;94143.19;1684315;83;21044;-58
2022/09/13 00:59:51;;;;;;;2.22;2.02;;;;;;;11.51;89.91;94143.17;1685212;83;21079;-58
2022/09/13 01:02:18;;;;;;;2.12;1.92;;;;;;;11.53;90.00;94144.84;1682180;84;21528;-56
2022/09/13 01:04:44;;;;;;;2.92;2.00;;;;;;;11.54;90.07;94139.47;1683249;84;21249;-57
2022/09/13 01:07:12;;;;;;;1.80;1.70;;;;;;;11.51;89.90;94143.17;1666030;84;21024;-57
2022/09/13 01:09:43;;;;;;;2.10;2.00;;;;;;;11.50;90.04;94147.78;1685136;84;21237;-58
2022/09/13 01:12:19;;;;;;;2.17;2.08;;;;;;;11.47;90.10;94139.05;1680980;83;20980;-57
2022/09/13 01:14:47;;;;;;;2.52;2.33;;;;;;;11.45;90.30;94146.42;1680751;83;21007;-57
2022/09/13 01:17:15;;;;;;;3.17;2.20;;;;;;;11.45;90.61;94145.64;1685720;83;21265;-58
2022/09/13 01:19:42;;;;;;;2.92;2.27;;;;;;;11.44;90.73;94142.15;1680125;83;21417;-57
2022/09/13 01:22:30;;;;;;;2.35;2.25;;;;;;;11.40;90.61;94141.56;1683366;83;21083;-57
2022/09/13 01:25:24;;;;;;;2.35;1.92;;;;;;;11.32;90.51;94140.36;1685387;83;21503;-57
2022/09/13 01:28:36;;;;;;;2.20;2.00;;;;;;;11.27;90.61;94147.88;1687071;83;21427;-57
2022/09/13 01:31:35;;;;;;;3.30;1.90;;;;;;;11.28;91.04;94141.15;1682020;84;21156;-57
2022/09/13 01:34:22;;;;;;;2.62;2.00;;;;;;;11.32;91.30;94138.23;1687029;83;20957;-57
2022/09/13 01:37:20;;;;;;;2.27;2.10;;;;;;;11.36;91.50;94138.82;1680318;84;21471;-57
2022/09/13 01:39:58;;;;;;;3.90;1.90;;;;;;;11.40;91.64;94133.30;1684870;83;20988;-56
2022/09/13 01:42:42;;;;;;;1.92;1.80;;;;;;;11.47;91.69;94135.70;1664596;84;21063;-57
2022/09/13 01:45:29;;;;;;;4.22;1.90;;;;;;;11.53;91.40;94128.94;1673405;83;21284;-58
2022/09/13 01:48:26;;;;;;;2.58;1.90;;;;;;;11.51;91.16;94136.28;1685309;83;21408;-57
2022/09/13 01:51:06;;;;;;;4.22;1.90;;;;;;;11.47;91.14;94132.17;1682554;84;21428;-57
2022/09/13 01:54:12;;;;;;;1.98;1.65;;;;;;;11.42;90.99;94127.30;1682914;84;20967;-57
2022/09/13 01:56:57;;;;;;;1.80;1.70;;;;;;;11.36;90.97;94124.42;1686592;83;20952;-57
2022/09/13 01:59:34;;;;;;;2.45;1.80;;;;;;;11.33;91.38;94116.35;1683558;83;21485;-57
2022/09/13 02:02:10;;;;;;;1.80;1.70;;;;;;;11.37;91.38;94121.81;1679821;83;20975;-58
2022/09/13 02:04:47;;;;;;;2.58;1.90;;;;;;;11.35;91.19;94120.77;1683649;83;21003;-59
2022/09/13 02:07:24;;;;;;;1.95;1.85;;;;;;;11.36;91.36;94120.92;1685800;83;21202;-56
2022/09/13 02:10:00;;;;;;;2.10;2.00;;;;;;;11.36;91.27;94123.67;1687500;83;21551;-58
2022/09/13 02:12:30;;;;;;;2.30;1.90;;;;;;;11.37;91.36;94116.94;1683223;83;21273;-58
2022/09/13 02:15:20;;;;;;;2.02;1.90;;;;;;;11.37;91.38;94117.69;1662107;84;20980;-58
2022/09/13 02:18:02;;;;;;;5.60;1.90;;;;;;;11.36;91.55;94110.66;1685586;83;21111;-61
2022/09/13 02:20:43;;;;;;;2.10;1.90;;;;;;;11.37;91.55;94113.55;1680918;83;21076;-61
2022/09/13 02:23:14;;;;;;;2.85;2.00;;;;;;;11.37;91.53;94119.06;1677755;83;21210;-57
2022/09/13 02:25:41;;;;;;;2.17;2.08;;;;;;;11.39;91.67;94112.47;1680332;84;21423;-56
2022/09/13 02:28:12;;;;;;;2.40;2.20;;;;;;;11.43;91.91;94119.19;1674604;83;21110;-56
2022/09/13 02:30:43;;;;;;;3.02;2.25;;;;;;;11.45;91.73;94115.35;1679866;83;21064;-58
2022/09/13 02:33:35;;;;;;;2.55;2.35;;;;;;;11.42;91.55;94113.53;1683570;83;21057;-55
2022/09/13 02:36:05;;;;;;;2.30;2.10;;;;;;;11.42;91.58;94112.94;1677873;83;21158;-60
2022/09/13 02:38:44;;;;;;;4.25;2.12;;;;;;;11.43;91.66;94107.57;1681895;84;21254;-56
2022/09/13 02:41:26;;;;;;;2.20;2.10;;;;;;;11.40;91.56;94105.76;1678972;83;21539;-57
2022/09/13 02:43:58;;;;;;;2.10;2.00;;;;;;;11.33;91.46;94104.70;1675394;83;21225;-58
2022/09/13 02:46:55;;;;;;;;;;;;;;;11.28;91.45;94109.48;1683376;85;21016;-58
2022/09/13 02:49:53;;;;;;;2.37;2.27;;;;;;;11.29;91.78;94108.25;1682424;83;20147;-56
2022/09/13 02:53:06;;;;;;;2.30;2.00;;;;;;;11.36;92.28;94114.04;1679123;83;21896;-56
2022/09/13 02:56:06;;;;;;;2.12;2.02;;;;;;;11.43;92.08;94108.17;1644763;86;21032;-57
2022/09/13 02:59:02;;;;;;;5.92;3.40;;;;;;;11.47;91.84;94105.41;1645666;86;21461;-57
2022/09/13 03:01:29;;;;;;;2.85;2.65;;;;;;;11.45;91.36;94109.24;1656860;85;21032;-55
2022/09/13 03:03:56;;;;;;;4.15;3.72;;;;;;;11.38;91.49;94111.58;1657271;85;21104;-57
2022/09/13 03:06:27;;;;;;;8.40;5.90;;;;;;;11.31;91.40;94104.41;1645802;86;21260;-57
2022/09/13 03:08:56;;;;;;;9.53;5.78;;;;;;;11.23;91.35;94103.25;1654504;85;21505;-57
2022/09/13 03:11:37;;;;;;;5.85;4.17;;;;;;;11.09;91.66;94092.91;1654145;85;21616;-58
2022/09/13 03:14:16;;;;;;;2.72;2.52;;;;;;;11.01;92.09;94101.34;1677898;83;21123;-57
2022/09/13 03:17:20;;;;;;;2.42;2.22;;;;;;;11.00;92.64;94092.19;1676281;84;21068;-58
2022/09/13 03:20:06;;;;;;;2.30;2.20;;;;;;;11.05;92.93;94094.30;1683951;84;22057;-57
2022/09/13 03:23:05;;;;;;;2.58;2.37;;;;;;;11.08;93.03;94096.89;1684150;83;20961;-58
2022/09/13 03:26:03;;;;;;;2.15;2.05;;;;;;;11.10;92.85;94092.27;1685575;83;21425;-57
2022/09/13 03:29:04;;;;;;;3.85;3.55;;;;;;;11.08;92.99;94090.00;1684974;84;20964;-58
2022/09/13 03:31:52;;;;;;;4.08;3.67;;;;;;;11.13;93.49;94095.50;1686829;83;21008;-57
2022/09/13 03:34:40;;;;;;;4.92;2.17;;;;;;;11.23;94.01;94096.36;1679565;83;21889;-57
2022/09/13 03:37:33;;;;;;;2.47;2.30;;;;;;;11.34;93.78;94104.11;1677624;84;21007;-57
2022/09/13 03:40:11;;;;;;;3.70;2.27;;;;;;;11.38;92.88;94106.81;1683229;83;21432;-58
2022/09/13 03:42:52;;;;;;;2.50;2.30;;;;;;;11.38;92.61;94108.82;1685269;84;21543;-57
2022/09/13 03:45:23;;;;;;;4.83;2.83;;;;;;;11.41;92.63;94101.77;1686326;83;21023;-58
2022/09/13 03:47:49;;;;;;;5.62;3.55;;;;;;;11.45;92.60;94103.73;1680413;83;21262;-56
2022/09/13 03:50:20;;;;;;;3.50;3.20;;;;;;;11.47;92.09;94096.36;1686927;83;21139;-57
2022/09/13 03:52:49;;;;;;;3.60;3.27;;;;;;;11.41;91.70;94102.37;1692706;83;21202;-58
2022/09/13 03:55:19;;;;;;;9.23;4.65;;;;;;;11.33;91.78;94096.45;1687387;85;21680;-58
2022/09/13 03:57:46;;;;;;;5.17;4.10;;;;;;;11.28;91.71;94092.96;1684250;83;21139;-57
2022/09/13 04:00:14;;;;;;;4.00;3.22;;;;;;;11.22;91.62;94107.23;1682991;83;21464;-58
2022/09/13 04:02:43;;;;;;;6.22;2.80;;;;;;;11.17;91.60;94102.34;1682768;83;21401;-59
2022/09/13 04:05:09;;;;;;;3.17;2.60;;;;;;;11.10;91.70;94104.06;1688916;84;21454;-58
2022/09/13 04:07:37;;;;;;;6.05;2.67;;;;;;;11.07;91.97;94093.21;1665051;83;21042;-58
2022/09/13 04:10:06;;;;;;;5.05;2.30;;;;;;;11.05;92.21;94098.42;1686237;85;21057;-58
2022/09/13 04:12:34;;;;;;;2.87;2.15;;;;;;;11.05;92.28;94101.17;1685357;85;21154;-57
2022/09/13 04:15:00;;;;;;;3.83;2.80;;;;;;;11.04;92.69;94094.92;1687796;85;21070;-58
2022/09/13 04:17:27;;;;;;;3.05;2.75;;;;;;;11.11;92.87;94094.58;1654435;86;21022;-58
2022/09/13 04:19:54;;;;;;;3.15;2.85;;;;;;;11.13;92.64;94099.63;1650004;86;21588;-57
2022/09/13 04:22:21;;;;;;;7.25;3.15;;;;;;;11.11;92.16;94093.80;1649501;87;21435;-57
2022/09/13 04:24:47;;;;;;;7.20;3.33;;;;;;;11.07;92.19;94095.36;1627760;86;21169;-57
2022/09/13 04:27:14;;;;;;;5.72;5.22;;;;;;;11.04;92.48;94094.92;1647402;86;21487;-57
2022/09/13 04:29:40;;;;;;;4.08;3.30;;;;;;;11.01;92.59;94090.95;1647430;87;21082;-56
2022/09/13 04:32:08;;;;;;;4.40;3.35;;;;;;;10.98;92.62;94087.76;1647447;87;21014;-56
2022/09/13 04:34:36;;;;;;;4.97;2.72;;;;;;;10.98;92.76;94092.63;1647760;87;21078;-56
2022/09/13 04:37:05;;;;;;;6.53;3.00;;;;;;;11.02;92.69;94097.35;1648896;87;21189;-57
2022/09/13 04:39:32;;;;;;;3.72;2.87;;;;;;;11.03;92.27;94098.91;1647364;87;21008;-56
2022/09/13 04:41:59;;;;;;;2.83;2.62;;;;;;;11.05;92.30;94098.42;1647282;86;21094;-56
2022/09/13 04:44:26;;;;;;;5.08;2.92;;;;;;;11.07;92.23;94099.49;1647410;87;21031;-58
2022/09/13 04:46:53;;;;;;;5.25;3.30;;;;;;;11.06;92.00;94100.72;1647406;87;21044;-57
2022/09/13 04:49:20;;;;;;;5.35;3.40;;;;;;;11.05;91.88;94098.42;1647403;87;21889;-57
2022/09/13 04:51:47;;;;;;;7.72;5.83;;;;;;;11.07;91.63;94105.59;1647245;87;21070;-58
2022/09/13 04:54:14;;;;;;;6.05;4.75;;;;;;;11.09;91.82;94099.01;1647536;87;21483;-56
2022/09/13 04:56:41;;;;;;;6.97;3.60;;;;;;;11.09;92.20;94099.78;1647341;87;21066;-56
2022/09/13 04:59:09;;;;;;;3.35;2.92;;;;;;;11.18;92.80;94106.61;1647402;87;21533;-57
2022/09/13 05:01:36;;;;;;;3.60;2.33;;;;;;;11.26;92.40;94109.19;1647175;87;21164;-57
2022/09/13 05:04:03;;;;;;;2.95;2.60;;;;;;;11.29;92.44;94112.38;1647344;87;20979;-58
2022/09/13 05:06:30;;;;;;;3.10;2.85;;;;;;;11.36;92.47;94112.03;1647504;87;21035;-58
2022/09/13 05:08:57;;;;;;;4.70;2.65;;;;;;;11.45;92.72;94107.87;1647338;87;21079;-57
2022/09/13 05:11:26;;;;;;;3.70;2.87;;;;;;;11.52;92.47;94105.38;1649065;87;20979;-60
2022/09/13 05:13:57;;;;;;;4.85;2.60;;;;;;;11.59;92.31;94105.83;1627166;87;21122;-62
2022/09/13 05:16:29;;;;;;;3.62;2.95;;;;;;;11.66;92.08;94115.11;1648833;86;21004;-59
2022/09/13 05:18:57;;;;;;;;;;;;;;;11.66;91.63;94109.59;1650224;87;21022;-61
2022/09/13 05:21:24;;;;;;;5.10;3.92;;;;;;;11.64;91.48;94107.16;1647419;87;20159;-62
2022/09/13 05:23:52;;;;;;;5.70;4.33;;;;;;;11.62;92.02;94114.53;1647456;87;20954;-59
2022/09/13 05:26:22;;;;;;;5.95;3.62;;;;;;;11.67;91.86;94114.48;1647481;87;21263;-60
2022/09/13 05:28:49;;;;;;;6.28;4.08;;;;;;;11.69;91.79;94116.17;1647702;87;21511;-61
2022/09/13 05:31:27;;;;;;;4.37;3.90;;;;;;;11.69;91.75;94110.03;1648958;86;21491;-59
2022/09/13 05:33:58;;;;;;;3.30;3.00;;;;;;;11.72;91.98;94108.34;1660947;84;21069;-61
2022/09/13 05:36:25;;;;;;;8.63;3.35;;;;;;;11.73;91.86;94109.86;1646230;84;21644;-59
2022/09/13 05:38:53;;;;;;;4.35;3.35;;;;;;;11.74;91.68;94109.37;1638994;85;21157;-61
2022/09/13 05:41:20;;;;;;;9.40;4.83;;;;;;;11.77;92.05;94119.48;1646639;86;21604;-60
2022/09/13 05:43:47;;;;;;;4.90;3.40;;;;;;;11.83;91.75;94118.98;1625240;85;21492;-64
2022/09/13 05:46:18;;;;;;;4.47;4.05;;;;;;;11.84;91.54;94121.10;1664831;84;21108;-59
2022/09/13 05:48:45;;;;;;;3.62;3.27;;;;;;;11.86;91.39;94117.29;1655764;85;21604;-60
2022/09/13 05:51:15;;;;;;;4.37;3.92;;;;;;;11.90;91.33;94110.34;1624764;86;21928;-61
2022/09/13 05:53:44;;;;;;;6.53;5.30;;;;;;;11.98;90.94;94119.80;1659428;85;21045;-61
2022/09/13 05:56:16;;;;;;;13.28;6.95;;;;;;;12.02;90.62;94118.98;1640648;85;21066;-59
2022/09/13 05:58:45;;;;;;;7.37;4.70;;;;;;;12.05;90.37;94122.18;1647844;85;27623;-61
2022/09/13 06:01:12;;;;;;;4.37;3.98;;;;;;;12.08;90.20;94118.47;1641916;85;21571;-58
2022/09/13 06:03:38;;;;;;;10.53;6.15;;;;;;;12.11;89.39;94121.66;1663240;84;22524;-60
2022/09/13 06:06:06;;;;;;;13.60;12.30;;;;;;;12.13;89.24;94125.34;1645852;85;21869;-60
2022/09/13 06:08:34;;;;;;;8.15;6.58;;;;;;;12.22;89.25;94123.87;1652195;84;21127;-58
2022/09/13 06:11:09;;;;;;;4.33;3.95;;;;;;;12.27;88.51;94124.62;1661902;85;21049;-58
2022/09/13 06:13:36;;;;;;;7.17;6.37;;;;;;;12.25;88.02;94127.84;1681463;83;21687;-58
2022/09/13 06:16:06;;;;;;;26.55;14.35;;;;;;;12.24;88.40;94124.94;1673604;83;21543;-62
2022/09/13 06:18:34;;;;;;;13.62;9.98;;;;;;;12.33;88.26;94133.15;1619558;86;21158;-58
2022/09/13 06:21:06;;;;;;;11.68;6.85;;;;;;;12.40;88.13;94135.53;1667085;83;21066;-58
2022/09/13 06:23:33;;;;;;;21.45;13.62;;;;;;;12.45;87.78;94131.36;1689113;83;21182;-63
2022/09/13 06:26:06;;;;;;;14.85;12.33;;;;;;;12.49;88.02;94128.53;1710810;82;21498;-58
2022/09/13 06:28:34;;;;;;;10.93;8.35;;;;;;;12.49;87.37;94136.81;1701996;83;21438;-59
2022/09/13 06:31:07;;;;;;;9.05;7.97;;;;;;;12.48;86.83;94140.80;1680037;83;21212;-60
2022/09/13 06:33:37;;;;;;;5.47;4.90;;;;;;;12.48;86.93;94132.53;1668216;84;21092;-58
2022/09/13 06:36:08;;;;;;;5.45;4.83;;;;;;;12.55;86.71;94138.44;1693273;83;21147;-61
2022/09/13 06:38:37;;;;;;;4.95;4.45;;;;;;;12.63;86.66;94141.59;1677219;83;21059;-61
2022/09/13 06:41:19;;;;;;;5.72;5.08;;;;;;;12.68;85.68;94142.33;1656171;84;21248;-60
2022/09/13 06:43:47;;;;;;;5.67;3.72;;;;;;;12.68;85.46;94143.71;1695132;82;21131;-61
2022/09/13 06:46:16;;;;;;;5.12;4.62;;;;;;;12.68;85.34;94150.61;1695499;83;21094;-59
2022/09/13 06:48:44;;;;;;;9.60;5.95;;;;;;;12.70;85.52;94144.73;1656452;84;21656;-57
2022/09/13 06:51:15;;;;;;;7.10;4.78;;;;;;;12.75;85.92;94140.56;1681488;82;21650;-59
2022/09/13 06:53:42;;;;;;;6.60;5.37;;;;;;;12.80;86.11;94148.17;1662749;84;21169;-63
2022/09/13 06:56:17;;;;;;;7.20;5.05;;;;;;;12.83;85.97;94140.31;1621004;86;21615;-60
2022/09/13 06:58:47;;;;;;;4.87;4.37;;;;;;;12.89;86.04;94140.55;1640260;85;21067;-59
2022/09/13 07:01:24;;;;;;;3.85;3.30;;;;;;;13.03;85.96;94140.44;1644274;86;21103;-56
2022/09/13 07:03:54;;;;;;;3.67;3.37;;;;;;;13.15;86.10;94144.30;1640365;85;21594;-59
2022/09/13 07:06:29;;;;;;;5.95;5.17;;;;;;;13.30;85.29;94138.75;1643382;84;21229;-64
2022/09/13 07:08:58;;;;;;;13.08;8.30;;;;;;;13.39;85.46;94145.53;1637686;85;21088;-64
2022/09/13 07:11:28;;;;;;;9.55;7.67;;;;;;;13.51;86.01;94145.85;1640644;84;21035;-62
2022/09/13 07:13:56;;;;;;;8.38;5.80;;;;;;;13.63;86.24;94151.70;1668020;83;21358;-64
2022/09/13 07:16:27;;;;;;;6.78;5.72;;;;;;;13.69;86.02;94153.91;1677003;83;21213;-63
2022/09/13 07:18:58;;;;;;;5.83;4.92;;;;;;;13.68;85.53;94158.69;1655398;84;21503;-65
2022/09/13 07:21:26;;;;;;;9.93;6.65;;;;;;;13.73;85.75;94165.52;1685686;83;21164;-65
2022/09/13 07:23:54;;;;;;;8.95;5.03;;;;;;;13.84;85.39;94160.16;1668407;83;21077;-63
2022/09/13 07:26:21;;;;;;;5.00;3.92;;;;;;;13.96;84.57;94167.38;1692327;83;20968;-61
2022/09/13 07:28:51;;;;;;;4.10;3.20;;;;;;;14.05;84.26;94163.08;1709242;82;21077;-59
2022/09/13 07:31:30;;;;;;;3.60;3.27;;;;;;;14.09;83.82;94161.64;1674684;84;21121;-59
2022/09/13 07:34:02;;;;;;;4.08;3.17;;;;;;;14.18;83.28;94158.75;1637956;85;21012;-59
2022/09/13 07:36:31;;;;;;;;;;;;;;;14.32;82.34;94150.27;1702794;82;21073;-63
2022/09/13 07:38:58;;;;;;;3.75;3.22;;;;;;;14.42;82.11;94166.23;1680454;83;20158;-62
2022/09/13 07:41:27;;;;;;;6.90;4.42;;;;;;;14.48;82.14;94169.82;1655289;83;21040;-63
2022/09/13 07:43:54;;;;;;;5.17;3.72;;;;;;;14.48;81.72;94169.82;1667622;84;21350;-59
2022/09/13 07:46:24;;;;;;;5.80;3.17;;;;;;;14.47;81.77;94162.13;1637845;85;21001;-59
2022/09/13 07:48:53;;;;;;;4.28;3.17;;;;;;;14.50;81.90;94168.09;1621590;86;21446;-60
2022/09/13 07:51:21;;;;;;;3.45;3.08;;;;;;;14.56;82.04;94167.53;1642741;86;21177;-62
2022/09/13 07:53:51;;;;;;;2.83;2.58;;;;;;;14.62;81.44;94176.64;1644767;86;22328;-64
2022/09/13 07:56:20;;;;;;;4.05;2.90;;;;;;;14.61;80.40;94175.77;1634410;85;21149;-60
2022/09/13 07:58:48;;;;;;;3.80;2.95;;;;;;;14.59;80.44;94170.70;1653746;84;21091;-60
2022/09/13 08:01:19;;;;;;;2.00;1.80;;;;;;;14.68;80.63;94175.33;1675046;82;21021;-58
2022/09/13 08:03:57;;;;;;;3.77;2.05;;;;;;;14.72;77.63;94172.49;1659269;83;21026;-61
2022/09/13 08:06:26;;;;;;;4.70;3.30;;;;;;;14.71;76.69;94171.58;1662617;85;21079;-60
2022/09/13 08:08:53;;;;;;;15.08;8.95;;;;;;;14.64;75.95;94170.00;1652019;85;21143;-59
2022/09/13 08:11:23;;;;;;;8.23;5.55;;;;;;;14.67;77.53;94171.79;1645173;85;21082;-57
2022/09/13 08:13:51;;;;;;;6.45;4.97;;;;;;;14.72;78.83;94172.49;1626652;84;21093;-61
2022/09/13 08:16:19;;;;;;;12.13;9.40;;;;;;;14.76;79.46;94171.65;1651560;85;21031;-62
2022/09/13 08:18:52;;;;;;;5.72;4.97;;;;;;;14.80;79.85;94170.06;1659757;84;21737;-64
2022/09/13 08:21:19;;;;;;;7.15;5.47;;;;;;;14.86;79.44;94176.41;1622815;86;21198;-62
2022/09/13 08:23:46;;;;;;;7.97;5.72;;;;;;;14.88;79.57;94173.30;1612510;86;21082;-60
2022/09/13 08:26:13;;;;;;;9.25;5.33;;;;;;;14.90;79.80;94179.10;1639148;85;21058;-62
2022/09/13 08:28:41;;;;;;;7.60;6.00;;;;;;;14.83;79.61;94173.23;1622332;85;21053;-63
2022/09/13 08:31:14;;;;;;;7.20;5.20;;;;;;;14.78;80.02;94174.69;1640293;85;21092;-63
2022/09/13 08:33:44;;;;;;;;;;;;;;;14.80;79.66;94177.73;1642131;86;21892;-62
2022/09/13 08:36:11;;;;;;;6.72;4.25;;;;;;;14.75;79.56;94174.89;1669176;84;20437;-64
2022/09/13 08:38:38;;;;;;;5.12;4.12;;;;;;;14.75;79.46;94176.27;1699252;83;21071;-62
2022/09/13 08:41:44;;;;;;;2.87;2.67;;;;;;;14.80;78.94;94176.34;1689042;83;21070;-62
2022/09/13 08:44:36;;;;;;;3.25;2.60;;;;;;;14.83;78.30;94180.16;1697801;82;21066;-62
2022/09/13 08:47:36;;;;;;;4.30;2.30;;;;;;;14.86;77.85;94184.11;1686055;83;21639;-60
2022/09/13 08:50:23;;;;;;;2.20;2.00;;;;;;;14.98;77.13;94176.02;1692264;83;21731;-60
2022/09/13 08:53:23;;;;;;;3.87;1.90;;;;;;;15.07;77.06;94182.80;1663344;84;21184;-64
2022/09/13 08:56:11;;;;;;;2.02;1.82;;;;;;;15.15;76.43;94186.64;1581244;87;21500;-64
2022/09/13 08:59:15;;;;;;;7.97;4.50;;;;;;;15.20;75.22;94190.08;1604822;87;21411;-63
2022/09/13 09:02:12;;;;;;;3.52;2.35;;;;;;;15.28;74.11;94191.80;1613718;87;21182;-62
2022/09/13 09:04:56;;;;;;;3.25;1.75;;;;;;;15.30;71.62;94187.31;1608922;87;21121;-60
2022/09/13 09:07:26;;;;;;;3.52;3.02;;;;;;;15.27;71.31;94195.20;1594192;87;21129;-58
2022/09/13 09:10:02;;;;;;;11.35;2.83;;;;;;;15.24;70.67;94194.80;1659346;84;21017;-60
2022/09/13 09:12:57;;;;;;;10.72;3.15;;;;;;;15.12;70.65;94187.63;1662416;84;21089;-60
2022/09/13 09:15:28;;;;;;;3.17;2.50;;;;;;;15.07;71.19;94198.04;1657541;84;21280;-61
2022/09/13 09:18:09;;;;;;;4.62;2.17;;;;;;;15.06;70.85;94197.91;1663727;83;21057;-58
2022/09/13 09:20:40;;;;;;;5.83;1.80;;;;;;;15.02;70.59;94197.34;1669848;84;21481;-58
2022/09/13 09:23:34;;;;;;;2.58;2.00;;;;;;;14.91;69.70;94197.23;1665411;84;21555;-57
2022/09/13 09:26:25;;;;;;;2.00;1.60;;;;;;;14.82;69.99;94191.84;1674900;84;21971;-57
2022/09/13 09:29:12;;;;;;;2.72;2.10;;;;;;;14.75;70.08;94197.82;1673818;84;21350;-59
2022/09/13 09:31:54;;;;;;;2.77;1.85;;;;;;;14.76;70.50;94189.65;1645470;84;21087;-59
2022/09/13 09:34:49;;;;;;;5.85;1.92;;;;;;;14.71;69.82;94191.74;1650614;84;21079;-56
2022/09/13 09:37:27;;;;;;;6.85;2.27;;;;;;;14.69;70.70;94192.08;1655773;84;21073;-63
2022/09/13 09:40:05;;;;;;;15.05;6.95;;;;;;;14.72;71.29;94188.33;1657066;84;21108;-56
2022/09/13 09:42:36;;;;;;;5.22;2.65;;;;;;;14.78;70.57;94185.77;1610754;87;21235;-60
2022/09/13 09:45:29;;;;;;;4.53;1.90;;;;;;;14.85;70.06;94192.25;1580182;87;21215;-60
2022/09/13 09:48:00;;;;;;;2.90;2.05;;;;;;;14.87;69.22;94185.63;1591668;87;21109;-61
2022/09/13 09:50:37;;;;;;;7.12;2.10;;;;;;;14.90;69.26;94189.41;1653595;85;21152;-59
2022/09/13 09:53:32;;;;;;;4.35;1.82;;;;;;;14.92;67.96;94186.30;1642310;85;21619;-59
2022/09/13 09:56:07;;;;;;;3.58;1.85;;;;;;;14.96;67.52;94190.25;1647901;85;21335;-61
2022/09/13 09:58:40;;;;;;;7.42;3.05;;;;;;;15.06;67.13;94194.36;1635224;85;21153;-56
2022/09/13 10:01:28;;;;;;;3.95;2.10;;;;;;;15.19;66.26;94191.33;1651647;85;26651;-60
2022/09/13 10:04:15;;;;;;;4.35;2.33;;;;;;;15.26;65.73;94195.69;1622629;85;21049;-60
2022/09/13 10:06:42;;;;;;;4.60;2.90;;;;;;;15.24;65.70;94197.58;1637915;85;21041;-57
2022/09/13 10:09:19;;;;;;;3.15;2.20;;;;;;;15.26;65.74;94195.07;1656943;85;21552;-58
2022/09/13 10:11:55;;;;;;;3.05;2.62;;;;;;;15.32;65.85;94198.67;1631646;85;21102;-60
2022/09/13 10:14:41;;;;;;;2.47;2.08;;;;;;;15.38;65.33;94195.95;1637163;85;21017;-62
2022/09/13 10:17:23;;;;;;;6.62;1.92;;;;;;;15.43;65.02;94198.78;1647109;85;21070;-58
2022/09/13 10:20:00;;;;;;;7.87;2.95;;;;;;;15.45;65.97;94193.50;1647712;85;21214;-59
2022/09/13 10:22:31;;;;;;;4.20;2.70;;;;;;;15.52;65.39;94198.59;1639859;84;21152;-59
2022/09/13 10:25:24;;;;;;;5.20;2.70;;;;;;;15.57;64.73;94199.89;1650555;85;21015;-61
2022/09/13 10:27:59;;;;;;;8.45;3.25;;;;;;;15.51;64.80;94188.75;1600124;85;21089;-60
2022/09/13 10:30:49;;;;;;;4.53;3.27;;;;;;;15.40;65.32;94188.66;1639886;85;21199;-59
2022/09/13 10:33:33;;;;;;;4.60;4.00;;;;;;;15.39;65.24;94187.13;1639921;85;21015;-60
2022/09/13 10:36:04;;;;;;;5.78;4.10;;;;;;;15.35;66.22;94196.30;1627695;86;21978;-61
2022/09/13 10:38:38;;;;;;;5.67;2.55;;;;;;;15.33;66.12;94192.52;1651250;85;21045;-59
2022/09/13 10:41:08;;;;;;;6.22;2.58;;;;;;;15.36;66.11;94197.82;1641094;85;21099;-60
2022/09/13 10:43:36;;;;;;;4.10;3.27;;;;;;;15.37;66.03;94200.72;1645773;85;21026;-61
2022/09/13 10:46:06;;;;;;;7.35;2.67;;;;;;;15.32;65.67;94195.91;1621763;85;21195;-65
2022/09/13 10:48:43;;;;;;;5.78;2.40;;;;;;;15.34;65.41;94197.55;1661989;84;21345;-59
2022/09/13 10:51:35;;;;;;;4.33;2.25;;;;;;;15.37;65.28;94200.72;1657993;84;21128;-64
2022/09/13 10:54:24;;;;;;;1.92;1.80;;;;;;;15.39;65.11;94197.47;1650492;84;21552;-65
2022/09/13 10:56:51;;;;;;;2.90;2.02;;;;;;;15.42;64.54;94195.88;1628301;85;21060;-62
2022/09/13 10:59:24;;;;;;;7.47;4.72;;;;;;;15.50;63.46;94198.33;1649122;84;21067;-64
2022/09/13 11:02:25;;;;;;;3.47;2.72;;;;;;;15.58;63.33;94196.61;1624157;85;26941;-55
2022/09/13 11:05:29;;;;;;;12.60;2.30;;;;;;;15.67;63.21;94192.90;1654499;85;21106;-61
2022/09/13 11:08:31;;;;;;;8.03;3.37;;;;;;;15.69;62.29;94195.33;1643704;85;21006;-62
2022/09/13 11:11:03;;;;;;;2.92;2.50;;;;;;;15.57;62.39;94186.78;1653691;85;21156;-62
2022/09/13 11:13:45;;;;;;;4.40;1.90;;;;;;;15.48;63.40;94186.97;1648062;85;21616;-59
2022/09/13 11:16:35;;;;;;;3.25;1.75;;;;;;;15.47;63.10;94180.52;1647664;85;21184;-59
2022/09/13 11:19:33;;;;;;;2.10;1.90;;;;;;;15.49;62.53;94181.55;1646714;84;21054;-64
2022/09/13 11:22:12;;;;;;;7.60;5.75;;;;;;;15.52;62.86;94186.76;1649074;85;21089;-65
2022/09/13 11:25:01;;;;;;;4.97;3.62;;;;;;;15.57;62.55;94174.30;1559909;87;21099;-61
2022/09/13 11:27:54;;;;;;;12.35;7.80;;;;;;;15.60;61.81;94171.95;1600158;87;21600;-60
2022/09/13 11:30:22;;;;;;;8.45;4.30;;;;;;;15.73;61.94;94169.50;1651627;85;22383;-60
2022/09/13 11:33:16;;;;;;;3.92;2.58;;;;;;;15.86;62.04;94168.47;1644707;85;21053;-59
2022/09/13 11:36:19;;;;;;;1.95;1.72;;;;;;;15.91;61.33;94174.67;1627458;84;21045;-61
2022/09/13 11:39:12;;;;;;;2.10;1.98;;;;;;;15.86;61.07;94174.02;1651113;85;21995;-60
2022/09/13 11:42:14;;;;;;;9.68;5.45;;;;;;;15.83;61.11;94172.23;1631870;85;21134;-60
2022/09/13 11:45:20;;;;;;;3.58;2.77;;;;;;;15.73;61.06;94163.95;1643547;84;21167;-60
2022/09/13 11:48:08;;;;;;;3.00;2.20;;;;;;;15.76;61.46;94159.45;1625772;85;21101;-63
2022/09/13 11:50:54;;;;;;;2.95;1.90;;;;;;;15.78;61.70;94159.70;1625021;84;21080;-62
2022/09/13 11:53:59;;;;;;;5.42;2.90;;;;;;;15.75;61.70;94153.13;1641335;85;21117;-61
2022/09/13 11:56:37;;;;;;;5.30;2.40;;;;;;;15.77;62.40;94147.84;1634924;85;21202;-57
2022/09/13 11:59:28;;;;;;;3.55;2.40;;;;;;;15.97;61.83;94146.35;1633263;85;21327;-67
2022/09/13 12:02:02;;;;;;;1.80;1.70;;;;;;;16.10;61.39;94150.81;1641476;85;21547;-64
2022/09/13 12:04:38;;;;;;;6.53;2.90;;;;;;;16.19;60.14;94145.69;1633293;85;21059;-65
2022/09/13 12:07:12;;;;;;;2.83;2.42;;;;;;;16.22;60.64;94149.63;1631876;85;21163;-58
2022/09/13 12:09:47;;;;;;;2.77;2.25;;;;;;;16.29;61.12;94146.37;1635059;85;20950;-58
2022/09/13 12:12:13;;;;;;;3.62;1.90;;;;;;;16.32;60.44;94154.47;1642284;85;21244;-62
2022/09/13 12:15:07;;;;;;;2.65;1.80;;;;;;;16.33;59.95;94149.69;1646657;85;21046;-62
2022/09/13 12:17:41;;;;;;;6.12;2.45;;;;;;;16.27;59.03;94143.33;1614549;85;21127;-58